Time;durP1;ratioP1;P1;durP2;ratioP2;P2;SDS_P1;SDS_P2;PMS_P1;PMS_P2;Temp;Humidity;BMP_temperature;BMP_pressure;BME280_temperature;BME280_humidity;BME280_pressure;Samples;Min_cycle;Max_cycle;Signal;HPM_P1;HPM_P2
2021/07/18 00:00:21;;;;;;;7.82;7.03;;;20.30;99.90;;;;;;5003109;28;20103;-66
2021/07/18 00:02:48;;;;;;;7.43;6.40;;;20.40;99.90;;;;;;4988013;28;20060;-69
2021/07/18 00:05:16;;;;;;;10.98;8.50;;;20.40;99.90;;;;;;5001883;28;20507;-66
2021/07/18 00:07:43;;;;;;;8.30;7.40;;;20.50;99.90;;;;;;5005231;28;20046;-66
2021/07/18 00:10:10;;;;;;;7.65;6.72;;;20.50;99.90;;;;;;5004119;28;20519;-67
2021/07/18 00:12:38;;;;;;;10.07;6.53;;;20.60;99.90;;;;;;5002226;28;20053;-66
2021/07/18 00:15:07;;;;;;;9.25;6.60;;;20.60;99.90;;;;;;5004037;28;20057;-66
2021/07/18 00:17:38;;;;;;;9.95;6.43;;;20.70;99.90;;;;;;4999557;28;20053;-67
2021/07/18 00:25:06;;;;;;;8.07;7.25;;;20.70;99.90;;;;;;5035869;28;20040;-65
2021/07/18 00:27:33;;;;;;;9.05;6.80;;;20.70;99.90;;;;;;4999050;28;20038;-71
2021/07/18 00:30:00;;;;;;;8.90;7.93;;;20.60;99.90;;;;;;5005659;28;20431;-68
2021/07/18 00:32:27;;;;;;;11.05;6.88;;;20.70;99.90;;;;;;5005629;28;20052;-66
2021/07/18 00:35:11;;;;;;;11.27;6.20;;;20.60;99.90;;;;;;4085839;28;10002000;-66
2021/07/18 00:37:39;;;;;;;9.43;7.53;;;20.60;99.90;;;;;;2410361;28;10001937;-66
2021/07/18 00:40:06;;;;;;;10.68;7.78;;;20.60;99.90;;;;;;5004174;28;20097;-66
2021/07/18 00:42:33;;;;;;;10.80;8.10;;;20.50;99.90;;;;;;4995939;28;20491;-67
2021/07/18 00:45:01;;;;;;;9.57;8.68;;;20.50;99.90;;;;;;5004826;28;20454;-65
2021/07/18 00:47:28;;;;;;;8.57;7.72;;;20.50;99.90;;;;;;5004133;28;20495;-69
2021/07/18 00:49:55;;;;;;;9.07;8.18;;;20.50;99.90;;;;;;5007575;28;20630;-67
2021/07/18 00:52:22;;;;;;;15.95;9.15;;;20.40;99.90;;;;;;5000286;28;20683;-66
2021/07/18 00:54:49;;;;;;;8.80;7.85;;;20.40;99.90;;;;;;5005360;28;20096;-68
2021/07/18 00:57:16;;;;;;;9.23;7.63;;;20.30;99.90;;;;;;5003897;28;20487;-66
2021/07/18 00:59:44;;;;;;;8.75;7.95;;;20.20;99.90;;;;;;5006165;28;20078;-66
2021/07/18 01:02:11;;;;;;;11.30;8.85;;;20.20;99.90;;;;;;5003415;28;20049;-66
2021/07/18 01:04:38;;;;;;;9.75;8.63;;;20.10;99.90;;;;;;5002905;28;20046;-65
2021/07/18 01:07:05;;;;;;;11.25;8.13;;;20.10;99.90;;;;;;5005438;28;20061;-66
2021/07/18 01:09:33;;;;;;;11.57;9.20;;;20.00;99.90;;;;;;5002017;28;20616;-69
2021/07/18 01:12:01;;;;;;;10.18;9.15;;;19.90;99.90;;;;;;5005375;28;20045;-68
2021/07/18 01:14:29;;;;;;;12.27;9.38;;;19.90;99.90;;;;;;4995130;28;20046;-66
2021/07/18 01:16:56;;;;;;;10.30;9.30;;;20.00;99.90;;;;;;5004061;28;20096;-67
2021/07/18 01:19:26;;;;;;;9.50;8.27;;;20.20;99.90;;;;;;5003259;28;20172;-66
2021/07/18 01:21:58;;;;;;;10.55;9.05;;;20.30;99.90;;;;;;5002438;28;20875;-66
2021/07/18 01:24:29;;;;;;;13.05;9.82;;;20.40;99.90;;;;;;5003981;28;20066;-67
2021/07/18 01:26:57;;;;;;;10.55;8.48;;;20.40;99.90;;;;;;5002925;28;20461;-66
2021/07/18 01:29:25;;;;;;;10.43;9.30;;;20.40;99.90;;;;;;5002443;28;20049;-69
2021/07/18 01:31:52;;;;;;;11.65;9.25;;;20.30;99.90;;;;;;5002370;28;20132;-66
2021/07/18 01:34:19;;;;;;;11.13;9.48;;;20.30;99.90;;;;;;5004199;28;20058;-68
2021/07/18 01:36:46;;;;;;;10.75;8.23;;;20.30;99.90;;;;;;5003970;28;20501;-67
2021/07/18 01:39:14;;;;;;;12.27;9.30;;;20.20;99.90;;;;;;5002943;28;20138;-66
2021/07/18 01:41:41;;;;;;;10.77;8.93;;;20.20;99.90;;;;;;5002087;28;20143;-67
2021/07/18 01:44:09;;;;;;;10.18;8.73;;;20.10;99.90;;;;;;5002300;28;20054;-66
2021/07/18 01:46:36;;;;;;;11.98;8.48;;;20.00;99.90;;;;;;5003933;28;20136;-66
2021/07/18 01:49:08;;;;;;;10.43;8.27;;;20.00;99.90;;;;;;5001960;28;20053;-68
2021/07/18 01:51:36;;;;;;;11.10;9.65;;;19.90;99.90;;;;;;5002539;28;20045;-66
2021/07/18 01:54:05;;;;;;;16.42;9.95;;;19.90;99.90;;;;;;5002646;28;20042;-66
2021/07/18 01:56:32;;;;;;;10.85;7.80;;;19.90;99.90;;;;;;5002922;28;20104;-66
2021/07/18 01:58:59;;;;;;;8.52;7.63;;;19.80;99.90;;;;;;5001082;28;20099;-66
2021/07/18 02:01:31;;;;;;;9.18;7.63;;;19.80;99.90;;;;;;5001742;28;20064;-66
2021/07/18 02:04:00;;;;;;;9.10;8.05;;;19.70;99.90;;;;;;5000992;28;20157;-67
2021/07/18 02:06:29;;;;;;;8.82;7.93;;;19.70;99.90;;;;;;5002859;28;20074;-66
2021/07/18 02:08:57;;;;;;;14.52;9.38;;;19.60;99.90;;;;;;5001107;28;20065;-66
2021/07/18 02:11:26;;;;;;;8.73;7.05;;;19.60;99.90;;;;;;5002671;28;20084;-65
2021/07/18 02:13:55;;;;;;;8.57;6.78;;;19.60;99.90;;;;;;4999525;28;20120;-68
2021/07/18 02:16:23;;;;;;;8.93;6.82;;;19.50;99.90;;;;;;5003179;28;20050;-66
2021/07/18 02:18:50;;;;;;;10.50;8.38;;;19.50;99.90;;;;;;5002032;28;20073;-66
2021/07/18 02:21:20;;;;;;;11.13;8.00;;;19.50;99.90;;;;;;4991761;28;20112;-66
2021/07/18 02:23:48;;;;;;;10.50;7.38;;;19.50;99.90;;;;;;4997952;28;20425;-66
2021/07/18 02:26:16;;;;;;;9.57;7.90;;;19.50;99.90;;;;;;5001843;28;20115;-66
2021/07/18 02:28:44;;;;;;;9.13;7.85;;;19.50;99.90;;;;;;5001552;28;20058;-66
2021/07/18 02:31:11;;;;;;;8.95;5.97;;;19.50;99.90;;;;;;4998059;28;20050;-68
2021/07/18 02:33:38;;;;;;;7.88;6.70;;;19.50;99.90;;;;;;4998880;28;20073;-65
2021/07/18 02:36:05;;;;;;;6.82;5.18;;;19.50;99.90;;;;;;5000093;28;20379;-65
2021/07/18 02:38:32;;;;;;;8.10;6.68;;;19.50;99.90;;;;;;5003148;28;20053;-66
2021/07/18 02:40:59;;;;;;;7.47;5.20;;;19.50;99.90;;;;;;4997820;28;20107;-67
2021/07/18 02:43:26;;;;;;;6.03;4.97;;;19.40;99.90;;;;;;5001355;28;20049;-67
2021/07/18 02:45:53;;;;;;;8.30;5.97;;;19.40;99.90;;;;;;5002854;28;20088;-66
2021/07/18 02:48:20;;;;;;;10.02;4.53;;;19.40;99.90;;;;;;5002336;28;20057;-66
2021/07/18 02:50:48;;;;;;;7.63;4.70;;;19.40;99.90;;;;;;4984486;28;20538;-65
2021/07/18 02:53:15;;;;;;;10.10;5.30;;;19.50;99.90;;;;;;4999049;28;20100;-68
2021/07/18 02:55:42;;;;;;;5.40;4.53;;;19.50;99.90;;;;;;5002013;28;20104;-67
2021/07/18 02:58:09;;;;;;;8.05;4.75;;;19.40;99.90;;;;;;5003885;28;20058;-66
2021/07/18 03:00:36;;;;;;;7.00;4.47;;;19.40;99.90;;;;;;5003461;28;20057;-66
2021/07/18 03:03:05;;;;;;;5.78;4.55;;;19.40;99.90;;;;;;5002281;28;20096;-66
2021/07/18 03:05:32;;;;;;;8.52;4.25;;;19.40;99.90;;;;;;5002539;28;20479;-67
2021/07/18 03:07:59;;;;;;;7.65;4.70;;;19.40;99.90;;;;;;5002770;28;20434;-67
2021/07/18 03:10:26;;;;;;;5.40;3.85;;;19.30;99.90;;;;;;5001292;28;20046;-66
2021/07/18 03:12:53;;;;;;;5.95;4.43;;;19.30;99.90;;;;;;5002966;28;20049;-66
2021/07/18 03:15:20;;;;;;;6.15;4.55;;;19.30;99.90;;;;;;4993527;28;20041;-66
2021/07/18 03:17:47;;;;;;;6.65;4.35;;;19.30;99.90;;;;;;5005076;28;20112;-66
2021/07/18 03:20:17;;;;;;;7.47;4.18;;;19.30;99.90;;;;;;5003076;28;20050;-65
2021/07/18 03:22:45;;;;;;;7.78;4.18;;;19.30;99.90;;;;;;5003245;28;20050;-66
2021/07/18 03:25:13;;;;;;;10.00;4.63;;;19.30;99.90;;;;;;4997834;28;20050;-67
2021/07/18 03:27:41;;;;;;;4.80;4.13;;;19.20;99.90;;;;;;4996506;28;20050;-66
2021/07/18 03:30:11;;;;;;;7.63;4.07;;;19.20;99.90;;;;;;5004883;28;20050;-66
2021/07/18 03:32:39;;;;;;;;;;;19.20;99.90;;;;;;5008243;28;20054;-66
2021/07/18 03:35:07;;;;;;;8.15;4.60;;;19.20;99.90;;;;;;4988505;28;19976;-65
2021/07/18 03:37:35;;;;;;;5.85;4.40;;;19.30;99.90;;;;;;5005263;28;20055;-72
2021/07/18 03:40:05;;;;;;;11.20;4.82;;;19.20;99.90;;;;;;5005567;28;20050;-65
2021/07/18 03:42:32;;;;;;;10.97;5.27;;;19.20;99.90;;;;;;5005472;28;20104;-66
2021/07/18 03:44:59;;;;;;;8.27;4.97;;;19.20;99.90;;;;;;5006449;28;20073;-67
2021/07/18 03:47:26;;;;;;;5.75;4.38;;;19.30;99.90;;;;;;5004874;28;20438;-67
2021/07/18 03:49:52;;;;;;;7.07;3.78;;;19.30;99.90;;;;;;5006816;28;20101;-68
2021/07/18 03:52:19;;;;;;;7.85;6.30;;;19.30;99.90;;;;;;5005887;28;20037;-66
2021/07/18 03:54:46;;;;;;;7.30;4.38;;;19.30;99.90;;;;;;5007484;28;20121;-68
2021/07/18 03:57:13;;;;;;;28.13;5.45;;;19.30;99.90;;;;;;5005092;28;20496;-68
2021/07/18 03:59:40;;;;;;;7.15;4.82;;;19.30;99.90;;;;;;5004943;28;20127;-66
2021/07/18 04:02:07;;;;;;;7.80;4.03;;;19.30;99.90;;;;;;5004468;28;20062;-66
2021/07/18 04:04:34;;;;;;;8.55;4.13;;;19.40;99.90;;;;;;5006693;28;20418;-68
2021/07/18 04:07:02;;;;;;;6.55;3.70;;;19.40;99.90;;;;;;4987366;28;20076;-68
2021/07/18 04:09:29;;;;;;;5.50;4.15;;;19.40;99.90;;;;;;5001417;28;20042;-66
2021/07/18 04:11:55;;;;;;;9.75;5.07;;;19.40;99.90;;;;;;5005695;28;20672;-66
2021/07/18 04:14:23;;;;;;;7.88;4.57;;;19.50;99.90;;;;;;5005162;28;20415;-66
2021/07/18 04:16:50;;;;;;;5.55;3.95;;;19.50;99.90;;;;;;5006551;28;20421;-65
2021/07/18 04:19:17;;;;;;;5.53;3.53;;;19.40;99.90;;;;;;5003286;28;20096;-68
2021/07/18 04:21:44;;;;;;;8.27;4.10;;;19.40;99.90;;;;;;5006389;28;20045;-66
2021/07/18 04:24:11;;;;;;;11.02;4.68;;;19.40;99.90;;;;;;5003560;28;20085;-65
2021/07/18 04:26:38;;;;;;;7.72;3.88;;;19.50;99.90;;;;;;5008999;28;20045;-68
2021/07/18 04:29:04;;;;;;;10.75;3.95;;;19.50;99.90;;;;;;5005500;28;20636;-66
2021/07/18 04:31:31;;;;;;;6.75;4.28;;;19.50;99.90;;;;;;5005421;28;20123;-67
2021/07/18 04:33:59;;;;;;;4.78;3.30;;;19.60;99.90;;;;;;5003481;28;20153;-67
2021/07/18 04:36:25;;;;;;;8.60;4.50;;;19.60;99.90;;;;;;5006670;28;20050;-67
2021/07/18 04:38:52;;;;;;;8.27;3.83;;;19.60;99.90;;;;;;5003166;28;20145;-66
2021/07/18 04:41:19;;;;;;;4.72;3.40;;;19.60;99.90;;;;;;5002441;28;20509;-66
2021/07/18 04:43:46;;;;;;;7.53;3.20;;;19.60;99.90;;;;;;5005491;28;20050;-66
2021/07/18 04:46:13;;;;;;;6.60;3.78;;;19.70;99.90;;;;;;5005822;28;20101;-67
2021/07/18 04:48:40;;;;;;;6.15;3.80;;;19.70;99.90;;;;;;5003904;28;20058;-67
2021/07/18 04:51:07;;;;;;;4.03;3.10;;;19.80;99.90;;;;;;5005395;28;20054;-66
2021/07/18 04:53:34;;;;;;;12.15;3.42;;;19.80;99.90;;;;;;5004518;28;20455;-67
2021/07/18 04:56:01;;;;;;;8.20;3.97;;;19.80;99.90;;;;;;5006416;28;20102;-69
2021/07/18 04:58:28;;;;;;;8.05;3.38;;;19.80;99.90;;;;;;5009196;28;20108;-66
2021/07/18 05:00:55;;;;;;;7.50;5.03;;;19.80;99.90;;;;;;4984313;28;20065;-66
2021/07/18 05:03:22;;;;;;;9.15;4.18;;;19.80;99.90;;;;;;5004375;28;20069;-66
2021/07/18 05:05:49;;;;;;;8.45;4.22;;;19.80;99.90;;;;;;5003654;28;20561;-66
2021/07/18 05:08:16;;;;;;;6.35;2.97;;;19.90;99.90;;;;;;5004535;28;20077;-65
2021/07/18 05:10:43;;;;;;;10.57;3.65;;;19.90;99.90;;;;;;5005212;28;20084;-66
2021/07/18 05:13:10;;;;;;;8.27;2.90;;;19.90;99.90;;;;;;5002677;28;20069;-66
2021/07/18 05:15:37;;;;;;;6.63;3.78;;;19.90;99.90;;;;;;5002866;28;20042;-66
2021/07/18 05:18:14;;;;;;;8.18;3.20;;;20.00;99.90;;;;;;5003455;28;20037;-66
2021/07/18 05:20:41;;;;;;;10.05;4.97;;;20.00;99.90;;;;;;5005119;28;20175;-66
2021/07/18 05:23:09;;;;;;;9.10;3.53;;;20.00;99.90;;;;;;5004107;28;20049;-67
2021/07/18 05:25:37;;;;;;;5.85;2.45;;;20.00;99.90;;;;;;5004046;28;20069;-67
2021/07/18 05:28:07;;;;;;;5.75;3.00;;;20.00;99.90;;;;;;5001158;28;20045;-65
2021/07/18 05:30:34;;;;;;;5.43;3.03;;;20.10;99.90;;;;;;5005591;28;20041;-67
2021/07/18 05:33:01;;;;;;;10.18;3.05;;;20.10;99.90;;;;;;5002662;28;20073;-65
2021/07/18 05:35:27;;;;;;;6.82;2.85;;;20.10;99.90;;;;;;5002930;28;20049;-66
2021/07/18 05:37:54;;;;;;;4.45;3.17;;;20.10;99.90;;;;;;5003667;28;20054;-65
2021/07/18 05:40:22;;;;;;;5.88;2.50;;;20.20;99.90;;;;;;5002957;28;20046;-67
2021/07/18 05:42:49;;;;;;;6.78;2.53;;;20.30;99.90;;;;;;5005197;28;20050;-67
2021/07/18 05:45:16;;;;;;;6.72;2.88;;;20.30;99.90;;;;;;5003114;28;20053;-67
2021/07/18 05:47:43;;;;;;;7.65;3.05;;;20.30;99.90;;;;;;5002656;28;20050;-66
2021/07/18 05:50:11;;;;;;;7.35;2.83;;;20.30;99.90;;;;;;5003775;28;20046;-65
2021/07/18 05:52:39;;;;;;;5.30;2.95;;;20.30;99.90;;;;;;5000413;28;20088;-65
2021/07/18 05:55:07;;;;;;;6.28;2.70;;;20.30;99.90;;;;;;5002016;28;20139;-66
2021/07/18 05:57:34;;;;;;;7.85;2.40;;;20.30;99.90;;;;;;4997785;28;20154;-67
2021/07/18 06:00:12;;;;;;;4.00;2.92;;;20.30;99.90;;;;;;5011062;28;20088;-67
2021/07/18 06:02:41;;;;;;;6.03;2.58;;;20.30;99.90;;;;;;4999986;28;20050;-66
2021/07/18 06:05:09;;;;;;;10.43;2.55;;;20.30;99.90;;;;;;5002624;28;20521;-66
2021/07/18 06:07:37;;;;;;;3.72;2.30;;;20.40;99.90;;;;;;4998682;28;20076;-67
2021/07/18 06:10:08;;;;;;;8.68;3.05;;;20.40;99.90;;;;;;5001851;28;20061;-66
2021/07/18 06:12:36;;;;;;;6.20;2.17;;;20.40;99.90;;;;;;5003259;28;20451;-66
2021/07/18 06:15:05;;;;;;;4.03;2.60;;;20.40;99.90;;;;;;5001661;28;20061;-67
2021/07/18 06:17:32;;;;;;;7.05;2.92;;;20.40;99.90;;;;;;5001553;28;20057;-66
2021/07/18 06:19:59;;;;;;;3.83;2.10;;;20.50;99.90;;;;;;5002114;28;20100;-68
2021/07/18 06:22:26;;;;;;;11.98;2.65;;;20.50;99.90;;;;;;5001357;28;20406;-66
2021/07/18 06:24:53;;;;;;;3.17;2.28;;;20.50;99.90;;;;;;4999246;28;21049;-66
2021/07/18 06:27:20;;;;;;;6.82;1.98;;;20.50;99.90;;;;;;4997924;28;20046;-66
2021/07/18 06:29:47;;;;;;;3.85;2.25;;;20.50;99.90;;;;;;4998028;28;20123;-66
2021/07/18 06:32:13;;;;;;;5.00;2.90;;;20.50;99.90;;;;;;5002185;28;20050;-65
2021/07/18 06:34:40;;;;;;;7.47;2.40;;;20.50;99.90;;;;;;5001789;28;20042;-65
2021/07/18 06:37:07;;;;;;;3.80;2.53;;;20.50;99.90;;;;;;5002622;28;20045;-68
2021/07/18 06:39:34;;;;;;;5.75;2.65;;;20.50;99.90;;;;;;5001100;28;20049;-67
2021/07/18 06:42:02;;;;;;;4.72;1.92;;;20.50;99.90;;;;;;5003414;28;20045;-66
2021/07/18 06:44:30;;;;;;;5.00;2.10;;;20.50;99.90;;;;;;4998509;28;20509;-65
2021/07/18 06:46:56;;;;;;;8.88;3.65;;;20.60;99.90;;;;;;5003569;28;20096;-66
2021/07/18 06:49:23;;;;;;;11.15;2.05;;;20.60;99.90;;;;;;4999065;28;20139;-65
2021/07/18 06:51:50;;;;;;;6.30;2.85;;;20.60;99.90;;;;;;5002986;28;20476;-66
2021/07/18 06:54:17;;;;;;;8.15;3.55;;;20.70;99.90;;;;;;5000167;28;20081;-66
2021/07/18 06:56:44;;;;;;;11.35;2.75;;;20.70;99.90;;;;;;5001051;28;20538;-66
2021/07/18 06:59:11;;;;;;;6.63;3.30;;;20.60;99.90;;;;;;5002631;28;20042;-66
2021/07/18 07:01:38;;;;;;;7.18;3.00;;;20.60;99.90;;;;;;4997980;28;20404;-66
2021/07/18 07:04:06;;;;;;;7.05;2.25;;;20.70;99.90;;;;;;5004154;28;20054;-65
2021/07/18 07:06:33;;;;;;;8.30;2.17;;;20.70;99.90;;;;;;5004087;28;20050;-68
2021/07/18 07:09:01;;;;;;;4.78;2.78;;;20.80;99.90;;;;;;5005544;28;20111;-69
2021/07/18 07:11:28;;;;;;;2.70;1.70;;;20.80;99.90;;;;;;5001702;28;20412;-66
2021/07/18 07:13:55;;;;;;;7.47;2.20;;;20.80;99.90;;;;;;5004707;28;20472;-67
2021/07/18 07:16:23;;;;;;;4.05;1.50;;;20.90;99.90;;;;;;5003778;28;20046;-67
2021/07/18 07:18:51;;;;;;;3.78;2.47;;;20.90;99.90;;;;;;5006175;28;20044;-66
2021/07/18 07:21:18;;;;;;;8.30;2.63;;;20.90;99.90;;;;;;5002044;28;20153;-66
2021/07/18 07:23:45;;;;;;;6.95;2.22;;;20.90;99.90;;;;;;5005552;28;20049;-66
2021/07/18 07:26:12;;;;;;;4.85;2.47;;;20.90;99.90;;;;;;5006423;28;20069;-67
2021/07/18 07:28:39;;;;;;;4.03;2.40;;;20.90;99.90;;;;;;5001150;28;20050;-67
2021/07/18 07:31:06;;;;;;;7.47;2.88;;;20.80;99.90;;;;;;5006850;28;20100;-66
2021/07/18 07:33:35;;;;;;;7.95;2.28;;;20.90;99.90;;;;;;5000292;28;20415;-69
2021/07/18 07:36:03;;;;;;;6.90;1.80;;;20.90;99.90;;;;;;5005251;28;20470;-66
2021/07/18 07:38:31;;;;;;;4.40;1.70;;;20.90;99.90;;;;;;4989213;28;20140;-66
2021/07/18 07:40:59;;;;;;;4.95;1.60;;;20.90;99.90;;;;;;5004234;28;20176;-65
2021/07/18 07:43:26;;;;;;;3.75;2.40;;;21.00;99.90;;;;;;5001927;28;20527;-66
2021/07/18 07:45:53;;;;;;;3.70;1.80;;;21.00;99.90;;;;;;5005925;28;20061;-65
2021/07/18 07:48:20;;;;;;;5.10;1.73;;;21.00;99.90;;;;;;5006582;28;20100;-65
2021/07/18 07:50:47;;;;;;;3.80;2.92;;;21.20;99.90;;;;;;5004879;28;20344;-66
2021/07/18 07:53:14;;;;;;;2.88;2.17;;;21.20;99.90;;;;;;5002565;28;20077;-67
2021/07/18 07:55:42;;;;;;;5.45;2.08;;;21.20;99.90;;;;;;5005434;28;20042;-66
2021/07/18 07:58:09;;;;;;;11.52;2.75;;;21.20;99.90;;;;;;5003662;28;20133;-66
2021/07/18 08:00:40;;;;;;;6.30;2.33;;;21.30;99.90;;;;;;5004022;28;20052;-68
2021/07/18 08:03:09;;;;;;;4.53;1.60;;;21.30;99.90;;;;;;4983161;28;20108;-68
2021/07/18 08:05:37;;;;;;;7.25;2.20;;;21.30;99.90;;;;;;5001238;28;20069;-65
2021/07/18 08:08:04;;;;;;;5.05;1.95;;;21.30;99.90;;;;;;5002088;28;20400;-66
2021/07/18 08:10:32;;;;;;;4.88;1.75;;;21.30;99.90;;;;;;5003637;28;20128;-66
2021/07/18 08:12:59;;;;;;;7.38;2.63;;;21.30;99.90;;;;;;5000730;28;20108;-66
2021/07/18 08:15:26;;;;;;;4.13;2.25;;;21.30;99.90;;;;;;5000982;28;20077;-66
2021/07/18 08:17:54;;;;;;;4.63;1.98;;;21.30;99.90;;;;;;5000199;28;20310;-66
2021/07/18 08:20:24;;;;;;;5.72;2.95;;;21.30;99.90;;;;;;5002888;28;20050;-65
2021/07/18 08:22:54;;;;;;;6.38;2.30;;;21.40;99.90;;;;;;4998661;28;20046;-68
2021/07/18 08:25:24;;;;;;;5.13;2.55;;;21.40;99.90;;;;;;4999115;28;20060;-68
2021/07/18 08:27:51;;;;;;;9.82;2.95;;;21.50;99.90;;;;;;5000073;28;20127;-66
2021/07/18 08:30:19;;;;;;;2.55;2.00;;;21.40;99.90;;;;;;4984948;28;20050;-67
2021/07/18 08:32:48;;;;;;;5.60;2.10;;;21.20;99.90;;;;;;5003205;28;20160;-65
2021/07/18 08:35:16;;;;;;;6.97;2.15;;;21.30;99.90;;;;;;4998670;28;20128;-68
2021/07/18 08:37:43;;;;;;;4.35;2.00;;;21.40;99.90;;;;;;5003699;28;20050;-66
2021/07/18 08:40:11;;;;;;;6.15;2.33;;;21.40;99.90;;;;;;5001279;28;20057;-67
2021/07/18 08:42:39;;;;;;;3.38;1.42;;;21.50;99.90;;;;;;5002652;28;20397;-65
2021/07/18 08:45:08;;;;;;;6.30;3.03;;;21.60;99.90;;;;;;5000778;28;20612;-65
2021/07/18 08:47:35;;;;;;;6.22;1.92;;;21.70;99.90;;;;;;4996046;28;20076;-69
2021/07/18 08:50:03;;;;;;;4.07;1.75;;;21.40;99.90;;;;;;4999769;28;20154;-65
2021/07/18 08:52:31;;;;;;;6.70;2.97;;;21.50;99.90;;;;;;5002422;28;20054;-67
2021/07/18 08:55:04;;;;;;;4.57;2.25;;;21.70;99.90;;;;;;4999088;28;20045;-65
2021/07/18 08:57:32;;;;;;;6.80;1.90;;;21.70;99.90;;;;;;4998083;28;20140;-69
2021/07/18 08:59:59;;;;;;;10.05;2.03;;;21.70;99.90;;;;;;4997186;28;22020;-66
2021/07/18 09:02:26;;;;;;;4.68;2.15;;;21.70;99.90;;;;;;4997111;28;20034;-65
2021/07/18 09:04:53;;;;;;;5.10;1.65;;;21.80;99.90;;;;;;4996447;28;20159;-68
2021/07/18 09:07:21;;;;;;;4.93;3.00;;;21.70;99.90;;;;;;5000915;28;20057;-67
2021/07/18 09:09:49;;;;;;;3.45;1.75;;;21.70;99.90;;;;;;5003194;28;20131;-67
2021/07/18 09:12:17;;;;;;;4.60;2.00;;;21.90;99.90;;;;;;4999676;28;20210;-65
2021/07/18 09:14:46;;;;;;;4.45;2.10;;;22.00;99.90;;;;;;4968334;28;20042;-66
2021/07/18 09:17:17;;;;;;;6.72;2.88;;;21.90;99.90;;;;;;5001351;28;20050;-66
2021/07/18 09:19:48;;;;;;;6.97;3.08;;;21.90;99.90;;;;;;5001613;28;20133;-66
2021/07/18 09:22:17;;;;;;;7.25;1.90;;;22.00;99.90;;;;;;5000685;28;20498;-66
2021/07/18 09:24:47;;;;;;;3.67;2.42;;;21.90;99.90;;;;;;5001698;28;20579;-67
2021/07/18 09:27:23;;;;;;;3.78;2.70;;;22.10;99.90;;;;;;5001033;28;20050;-66
2021/07/18 09:29:54;;;;;;;4.53;2.10;;;22.20;99.90;;;;;;4996634;28;20092;-65
2021/07/18 09:32:22;;;;;;;5.40;2.28;;;22.20;99.90;;;;;;4999965;28;20845;-65
2021/07/18 09:34:55;;;;;;;6.88;2.53;;;22.10;99.90;;;;;;5001352;28;20103;-65
2021/07/18 09:37:25;;;;;;;4.65;1.70;;;21.90;99.90;;;;;;4999327;28;20385;-66
2021/07/18 09:40:09;;;;;;;5.13;2.05;;;21.90;99.90;;;;;;5002892;28;20080;-67
2021/07/18 09:42:43;;;;;;;4.28;1.60;;;22.00;99.90;;;;;;4996578;28;20161;-66
2021/07/18 09:45:16;;;;;;;6.88;2.00;;;22.10;99.90;;;;;;4998377;28;20049;-66
2021/07/18 09:48:03;;;;;;;4.13;1.92;;;22.30;99.90;;;;;;5001320;28;20046;-67
2021/07/18 09:50:39;;;;;;;4.88;1.92;;;22.40;99.90;;;;;;4998284;28;20054;-68
2021/07/18 09:53:10;;;;;;;4.80;2.13;;;22.30;99.90;;;;;;4999799;28;20089;-65
2021/07/18 09:55:39;;;;;;;5.03;1.70;;;22.30;99.90;;;;;;4998580;28;20057;-72
2021/07/18 09:58:06;;;;;;;7.68;2.33;;;22.40;99.90;;;;;;5001488;28;20041;-67
2021/07/18 10:00:39;;;;;;;7.47;1.95;;;22.20;99.90;;;;;;5001692;28;20263;-66
2021/07/18 10:03:22;;;;;;;2.90;2.00;;;22.30;99.90;;;;;;4986076;28;20108;-67
2021/07/18 10:06:07;;;;;;;2.58;2.00;;;22.50;99.90;;;;;;5002484;28;20045;-68
2021/07/18 10:08:39;;;;;;;3.50;1.90;;;22.40;99.90;;;;;;5000775;28;20041;-67
2021/07/18 10:11:10;;;;;;;4.85;2.17;;;22.60;99.90;;;;;;5006627;28;20049;-66
2021/07/18 10:13:38;;;;;;;7.45;1.98;;;22.90;99.90;;;;;;5004049;28;20111;-69
2021/07/18 10:16:06;;;;;;;3.85;2.20;;;22.90;99.90;;;;;;5001111;28;20484;-67
2021/07/18 10:18:39;;;;;;;3.55;1.65;;;22.70;99.90;;;;;;5000868;28;20053;-67
2021/07/18 10:21:08;;;;;;;5.55;2.08;;;22.70;99.90;;;;;;5001382;28;20115;-66
2021/07/18 10:23:38;;;;;;;3.03;1.38;;;22.80;99.90;;;;;;5000408;28;20050;-65
2021/07/18 10:26:17;;;;;;;5.13;2.25;;;22.80;99.90;;;;;;5003974;28;20429;-68
2021/07/18 10:28:45;;;;;;;4.45;1.80;;;22.80;99.90;;;;;;4998197;28;20389;-65
2021/07/18 10:31:32;;;;;;;4.45;1.73;;;23.00;99.90;;;;;;4984895;28;20096;-67
2021/07/18 10:34:05;;;;;;;3.85;1.80;;;23.10;99.90;;;;;;4992738;28;20382;-66
2021/07/18 10:36:33;;;;;;;3.20;1.73;;;23.10;99.90;;;;;;5001521;28;20053;-66
2021/07/18 10:39:00;;;;;;;6.82;2.13;;;23.10;99.90;;;;;;4997807;28;20100;-66
2021/07/18 10:41:44;;;;;;;1.45;1.17;;;23.00;99.90;;;;;;5001830;28;20054;-71
2021/07/18 10:44:15;;;;;;;3.05;1.42;;;22.90;99.90;;;;;;5003160;28;20034;-66
2021/07/18 10:46:42;;;;;;;2.95;1.92;;;22.90;99.90;;;;;;5001954;28;20061;-69
2021/07/18 10:49:14;;;;;;;4.65;1.50;;;23.00;99.90;;;;;;5003381;28;20549;-66
2021/07/18 10:51:51;;;;;;;4.05;2.35;;;23.00;99.90;;;;;;4983558;28;20124;-67
2021/07/18 10:54:20;;;;;;;3.45;1.75;;;23.10;99.90;;;;;;5003176;28;20053;-66
2021/07/18 10:56:49;;;;;;;5.25;1.75;;;23.30;99.90;;;;;;5003421;28;20041;-66
2021/07/18 10:59:35;;;;;;;5.22;1.65;;;23.50;99.90;;;;;;4983339;28;20108;-66
2021/07/18 11:02:04;;;;;;;3.95;1.85;;;23.40;99.90;;;;;;5004116;28;20470;-66
2021/07/18 11:04:47;;;;;;;1.93;1.70;;;23.60;99.90;;;;;;5002505;28;20053;-66
2021/07/18 11:07:20;;;;;;;2.63;1.73;;;23.40;99.90;;;;;;5000829;28;20042;-69
2021/07/18 11:09:57;;;;;;;4.75;2.17;;;23.40;99.90;;;;;;4998196;28;20060;-67
2021/07/18 11:12:27;;;;;;;5.57;2.47;;;23.50;99.90;;;;;;5002242;28;20439;-67
2021/07/18 11:15:17;;;;;;;3.85;1.95;;;23.40;99.90;;;;;;5000773;28;20054;-66
2021/07/18 11:18:04;;;;;;;4.50;1.73;;;23.40;99.90;;;;;;4993464;28;20096;-70
2021/07/18 11:20:48;;;;;;;4.35;2.28;;;23.50;99.90;;;;;;5003637;28;20096;-68
2021/07/18 11:23:20;;;;;;;4.50;1.95;;;23.40;99.90;;;;;;4999439;28;20065;-68
2021/07/18 11:26:02;;;;;;;2.05;1.30;;;23.40;99.90;;;;;;5002709;28;20543;-66
2021/07/18 11:28:36;;;;;;;4.90;3.00;;;23.20;99.90;;;;;;4999880;28;20594;-68
2021/07/18 11:31:14;;;;;;;3.05;1.70;;;23.20;99.90;;;;;;5002374;28;20050;-68
2021/07/18 11:33:44;;;;;;;2.35;1.60;;;23.40;99.90;;;;;;4997068;28;20042;-67
2021/07/18 11:36:22;;;;;;;5.20;2.33;;;23.40;99.90;;;;;;5001646;28;20100;-69
2021/07/18 11:38:50;;;;;;;3.45;1.38;;;23.50;99.90;;;;;;5000288;28;20779;-66
2021/07/18 11:41:30;;;;;;;4.85;1.75;;;23.50;99.90;;;;;;4982193;28;20042;-66
2021/07/18 11:44:03;;;;;;;2.53;1.73;;;23.30;99.90;;;;;;5001624;28;20061;-68
2021/07/18 11:46:37;;;;;;;4.05;1.63;;;23.20;99.90;;;;;;4999630;28;20434;-66
2021/07/18 11:49:05;;;;;;;2.95;1.30;;;23.10;99.90;;;;;;5002885;28;20543;-66
2021/07/18 11:51:37;;;;;;;3.92;1.70;;;23.20;99.90;;;;;;5000373;28;20418;-66
2021/07/18 11:54:06;;;;;;;3.35;1.95;;;23.20;99.90;;;;;;5004294;28;20454;-67
2021/07/18 11:56:35;;;;;;;8.02;2.25;;;23.20;99.90;;;;;;5002009;28;20564;-67
2021/07/18 11:59:07;;;;;;;3.03;1.70;;;23.30;99.90;;;;;;5004574;28;20100;-67
2021/07/18 12:01:41;;;;;;;4.10;1.88;;;23.40;99.90;;;;;;5002673;28;20054;-66
2021/07/18 12:04:10;;;;;;;2.58;1.98;;;23.60;99.90;;;;;;5005033;28;20079;-68
2021/07/18 12:06:38;;;;;;;4.63;2.20;;;23.50;99.90;;;;;;5004291;28;20053;-68
2021/07/18 12:09:23;;;;;;;4.18;1.45;;;23.70;99.90;;;;;;5006641;28;20049;-67
2021/07/18 12:11:55;;;;;;;7.50;3.63;;;23.80;99.90;;;;;;4999073;28;20056;-66
2021/07/18 12:14:23;;;;;;;;;;;24.00;99.90;;;;;;5004949;28;20131;-67
2021/07/18 12:16:56;;;;;;;3.47;2.08;;;23.90;99.90;;;;;;5002537;28;19988;-69
2021/07/18 12:19:25;;;;;;;1.83;1.40;;;23.80;99.90;;;;;;5004606;28;20077;-67
2021/07/18 12:21:54;;;;;;;6.13;1.67;;;23.90;99.90;;;;;;5004254;28;20054;-67
2021/07/18 12:24:25;;;;;;;4.93;1.77;;;23.70;99.90;;;;;;5006216;28;20046;-67
2021/07/18 12:26:52;;;;;;;3.55;1.98;;;23.60;99.90;;;;;;5005240;28;20078;-68
2021/07/18 12:29:20;;;;;;;3.25;1.98;;;23.60;99.90;;;;;;5002612;28;20561;-67
2021/07/18 12:31:49;;;;;;;2.65;2.40;;;23.80;99.90;;;;;;5003571;28;20053;-66
2021/07/18 12:34:18;;;;;;;4.53;2.72;;;23.90;99.90;;;;;;5007510;28;20107;-66
2021/07/18 12:37:11;;;;;;;4.53;2.53;;;24.00;99.90;;;;;;5005314;28;20107;-66
2021/07/18 12:39:42;;;;;;;4.43;2.40;;;24.00;99.90;;;;;;4999705;28;20041;-67
2021/07/18 12:42:19;;;;;;;4.97;2.33;;;23.90;99.90;;;;;;5003695;28;20392;-66
2021/07/18 12:44:55;;;;;;;3.35;2.05;;;23.90;99.90;;;;;;5007362;28;20054;-67
2021/07/18 12:47:33;;;;;;;3.05;2.00;;;23.80;99.90;;;;;;5004550;28;20053;-66
2021/07/18 12:50:06;;;;;;;3.92;2.22;;;23.70;99.90;;;;;;5004151;28;20535;-66
2021/07/18 12:52:34;;;;;;;3.85;2.47;;;23.70;99.90;;;;;;5006842;28;20383;-68
2021/07/18 12:55:15;;;;;;;2.88;1.83;;;23.60;99.90;;;;;;5001819;28;20046;-67
2021/07/18 12:57:43;;;;;;;2.78;1.92;;;23.60;99.90;;;;;;5001400;28;20124;-69
2021/07/18 13:00:12;;;;;;;5.90;2.65;;;23.60;99.90;;;;;;5005479;28;20088;-66